Time;durP1;ratioP1;P1;durP2;ratioP2;P2;SDS_P1;SDS_P2;PMS_P1;PMS_P2;Temp;Humidity;BMP_temperature;BMP_pressure;BME280_temperature;BME280_humidity;BME280_pressure;Samples;Min_cycle;Max_cycle;Signal;HPM_P1;HPM_P2
2022/01/14 00:01:57;;;;;;;;;;;;;;;5.93;56.53;101254.66;4417348;32;32817;-80
2022/01/14 00:04:24;;;;;;;;;;;;;;;6.22;55.38;101253.09;4431357;32;33881;-79
2022/01/14 00:06:52;;;;;;;;;;;;;;;6.32;54.75;101256.97;4429313;32;34959;-79
2022/01/14 00:09:19;;;;;;;;;;;;;;;6.22;55.18;101246.03;4431449;32;33774;-78
2022/01/14 00:11:50;;;;;;;;;;;;;;;6.07;55.13;101246.84;4429048;32;32133;-78
2022/01/14 00:16:51;;;;;;;;;;;;;;;5.99;55.96;101243.78;4441373;32;35405;-78
2022/01/14 00:19:18;;;;;;;;;;;;;;;6.17;55.19;101244.59;4424741;32;35441;-79
2022/01/14 00:21:46;;;;;;;;;;;;;;;6.11;55.61;101240.47;4444598;32;32722;-79
2022/01/14 00:24:26;;;;;;;;;;;;;;;6.21;55.37;101239.06;4428738;32;33842;-79
2022/01/14 00:34:53;;;;;;;;;;;;;;;5.49;57.72;101226.16;4441442;32;33757;-79
2022/01/14 00:37:20;;;;;;;;;;;;;;;5.45;58.19;101224.59;4425392;32;35627;-80
2022/01/14 00:39:47;;;;;;;;;;;;;;;5.57;57.97;101218.69;4422772;32;34023;-79
2022/01/14 00:42:15;;;;;;;;;;;;;;;5.42;58.21;101221.25;4431627;32;33874;-78
2022/01/14 00:44:42;;;;;;;;;;;;;;;5.79;57.08;101221.97;4425508;32;34382;-80
2022/01/14 00:47:10;;;;;;;;;;;;;;;5.74;56.73;101218.69;4439365;32;34814;-79
2022/01/14 00:49:37;;;;;;;;;;;;;;;5.65;57.16;101214.75;4429486;32;35249;-80
2022/01/14 00:52:05;;;;;;;;;;;;;;;5.64;57.01;101207.75;4441924;32;33433;-80
2022/01/14 00:54:32;;;;;;;;;;;;;;;5.77;56.46;101206.16;4421448;32;32000;-80
2022/01/14 00:59:36;;;;;;;;;;;;;;;5.46;57.73;101204.34;4455047;32;33746;-79
2022/01/14 01:02:04;;;;;;;;;;;;;;;5.48;57.44;101205.97;4427025;32;31964;-80
2022/01/14 01:04:36;;;;;;;;;;;;;;;5.76;56.55;101200.97;4428712;32;34007;-79
2022/01/14 01:07:05;;;;;;;;;;;;;;;5.26;58.16;101209.78;4429064;32;33496;-79
2022/01/14 01:09:34;;;;;;;;;;;;;;;5.16;58.34;101205.88;4429073;32;33075;-79
2022/01/14 01:12:09;;;;;;;;;;;;;;;5.29;57.92;101210.47;4412423;32;33362;-79
2022/01/14 01:14:45;;;;;;;;;;;;;;;5.35;57.51;101207.53;4421635;32;34627;-80
2022/01/14 01:17:13;;;;;;;;;;;;;;;4.85;58.69;101211.81;4429068;32;33927;-79
2022/01/14 01:19:41;;;;;;;;;;;;;;;5.42;57.15;101213.34;4429623;32;34512;-79
2022/01/14 01:22:08;;;;;;;;;;;;;;;5.30;57.43;101200.78;4428468;32;32586;-79
2022/01/14 01:24:37;;;;;;;;;;;;;;;5.09;57.72;101207.13;4417774;32;32507;-79
2022/01/14 01:27:08;;;;;;;;;;;;;;;5.31;57.40;101213.03;4430878;32;34501;-79
2022/01/14 01:32:06;;;;;;;;;;;;;;;5.04;58.11;101203.84;4441845;32;33345;-79
2022/01/14 01:34:34;;;;;;;;;;;;;;;5.03;58.19;101200.38;4430470;32;32906;-80
2022/01/14 01:37:03;;;;;;;;;;;;;;;5.05;57.93;101195.87;4444726;32;35314;-80
2022/01/14 01:39:31;;;;;;;;;;;;;;;5.19;57.44;101195.19;4445039;32;35349;-80
2022/01/14 01:42:00;;;;;;;;;;;;;;;4.86;58.15;101192.44;4422376;32;34126;-80
2022/01/14 01:44:28;;;;;;;;;;;;;;;4.71;58.96;101189.69;4444729;32;33934;-79
2022/01/14 01:46:56;;;;;;;;;;;;;;;4.50;59.66;101193.31;4429937;32;34355;-79
2022/01/14 01:49:24;;;;;;;;;;;;;;;4.40;59.95;101189.41;4447505;32;34388;-80
2022/01/14 01:51:52;;;;;;;;;;;;;;;4.38;60.12;101186.88;4445361;32;33532;-80
2022/01/14 01:54:20;;;;;;;;;;;;;;;4.85;58.76;101185.47;4428618;32;33223;-79
2022/01/14 01:56:49;;;;;;;;;;;;;;;4.73;58.90;101170.22;4426335;32;35390;-80
2022/01/14 01:59:21;;;;;;;;;;;;;;;4.46;59.66;101181.25;4446414;32;34727;-79
2022/01/14 02:01:49;;;;;;;;;;;;;;;4.46;59.72;101179.47;4423905;32;32726;-80
2022/01/14 02:04:16;;;;;;;;;;;;;;;4.73;58.60;101170.22;4444765;32;34671;-79
2022/01/14 02:06:44;;;;;;;;;;;;;;;4.47;59.44;101168.00;4429857;32;35102;-78
2022/01/14 02:09:12;;;;;;;;;;;;;;;4.67;58.79;101159.13;4432348;32;34258;-80
2022/01/14 02:11:39;;;;;;;;;;;;;;;4.64;58.58;101157.47;4429822;32;33388;-79
2022/01/14 02:14:15;;;;;;;;;;;;;;;4.61;58.41;101155.00;4428582;32;34153;-79
2022/01/14 02:23:03;;;;;;;;;;;;;;;4.72;58.04;101138.69;4312140;33;34277;-79
2022/01/14 02:25:30;;;;;;;;;;;;;;;4.68;58.12;101129.19;4309140;33;33982;-80
2022/01/14 02:27:58;;;;;;;;;;;;;;;4.79;57.81;101126.91;4309125;33;35092;-78
2022/01/14 02:33:17;;;;;;;;;;;;;;;4.65;58.37;101121.44;4413372;26;34068;-77
2022/01/14 02:35:49;;;;;;;;;;;;;;;4.29;59.69;101120.59;4444554;32;34491;-77
2022/01/14 02:38:34;;;;;;;;;;;;;;;4.42;60.18;101122.56;4436582;32;35345;-77
2022/01/14 02:41:02;;;;;;;;;;;;;;;4.18;61.14;101118.47;4438314;32;34564;-77
2022/01/14 02:44:07;;;;;;;;;;;;;;;4.42;60.32;101112.03;4453575;32;32694;-77
2022/01/14 02:46:49;;;;;;;;;;;;;;;4.58;59.71;101115.63;4431958;32;32977;-77
2022/01/14 02:49:26;;;;;;;;;;;;;;;4.30;60.71;101111.75;4451140;32;34026;-77
2022/01/14 02:52:13;;;;;;;;;;;;;;;4.28;61.14;101105.72;4432758;32;33445;-77
2022/01/14 02:55:02;;;;;;;;;;;;;;;4.19;61.22;101101.75;4446398;32;33181;-77
2022/01/14 02:57:32;;;;;;;;;;;;;;;4.30;61.16;101104.72;4446253;32;34088;-77
2022/01/14 03:00:03;;;;;;;;;;;;;;;4.37;60.92;101098.25;4441330;32;33878;-77
2022/01/14 03:02:51;;;;;;;;;;;;;;;4.40;61.02;101097.22;4452869;32;34632;-77
2022/01/14 03:05:20;;;;;;;;;;;;;;;4.18;61.44;101094.78;4432840;32;32307;-77
2022/01/14 03:07:48;;;;;;;;;;;;;;;4.28;61.39;101087.28;4433037;32;33626;-77
2022/01/14 03:10:17;;;;;;;;;;;;;;;4.23;61.13;101084.87;4449384;32;35377;-77
2022/01/14 03:12:58;;;;;;;;;;;;;;;4.49;60.51;101088.84;4429368;32;33367;-77
2022/01/14 03:15:28;;;;;;;;;;;;;;;4.18;61.42;101086.00;4427886;32;32294;-77
2022/01/14 03:18:04;;;;;;;;;;;;;;;4.23;61.35;101081.34;4446805;32;33626;-77
2022/01/14 03:20:50;;;;;;;;;;;;;;;4.07;61.70;101069.88;4422087;32;34046;-77
2022/01/14 03:23:19;;;;;;;;;;;;;;;4.43;60.42;101071.56;4441311;32;34460;-77
2022/01/14 03:25:48;;;;;;;;;;;;;;;4.24;60.96;101068.13;4428311;32;32225;-77
2022/01/14 03:28:23;;;;;;;;;;;;;;;4.48;60.10;101071.34;4441484;32;34023;-77
2022/01/14 03:30:51;;;;;;;;;;;;;;;4.39;60.26;101066.53;4445561;32;35701;-77
2022/01/14 03:33:20;;;;;;;;;;;;;;;4.17;61.29;101069.34;4431089;32;33642;-77
2022/01/14 03:35:58;;;;;;;;;;;;;;;4.13;61.11;101069.56;4431387;32;32202;-77
2022/01/14 03:38:25;;;;;;;;;;;;;;;3.88;62.23;101061.97;4442343;32;33984;-77
2022/01/14 03:41:10;;;;;;;;;;;;;;;3.96;62.20;101062.47;4451767;32;35083;-77
2022/01/14 03:43:40;;;;;;;;;;;;;;;4.00;61.59;101061.41;4439236;32;34230;-77
2022/01/14 03:46:08;;;;;;;;;;;;;;;4.23;61.08;101061.16;4435058;32;32433;-77
2022/01/14 03:48:37;;;;;;;;;;;;;;;3.83;62.26;101052.59;4435447;32;34019;-77
2022/01/14 03:51:05;;;;;;;;;;;;;;;4.08;61.80;101055.78;4427470;32;33880;-77
2022/01/14 03:53:32;;;;;;;;;;;;;;;3.89;62.60;101052.31;4456435;32;33822;-77
2022/01/14 03:56:06;;;;;;;;;;;;;;;3.74;63.12;101051.25;4441967;32;33614;-77
2022/01/14 03:59:01;;;;;;;;;;;;;;;3.59;64.08;101051.13;4456451;32;33860;-77
2022/01/14 04:01:34;;;;;;;;;;;;;;;3.64;64.13;101046.47;4447482;32;34790;-77
2022/01/14 04:04:03;;;;;;;;;;;;;;;3.77;63.79;101043.19;4438854;32;33343;-77
2022/01/14 04:06:31;;;;;;;;;;;;;;;3.87;63.33;101046.28;4452907;32;33441;-77
2022/01/14 04:09:07;;;;;;;;;;;;;;;4.06;62.72;101047.09;4435323;32;32670;-77
2022/01/14 04:12:00;;;;;;;;;;;;;;;3.85;63.42;101053.38;4431175;32;34677;-77
2022/01/14 04:17:05;;;;;;;;;;;;;;;4.39;61.57;101048.09;4446656;32;33532;-77
2022/01/14 04:19:34;;;;;;;;;;;;;;;4.58;60.98;101047.13;4432829;32;33828;-77
2022/01/14 04:22:22;;;;;;;;;;;;;;;4.63;60.55;101039.81;4440833;32;35939;-77
2022/01/14 04:24:51;;;;;;;;;;;;;;;4.42;61.21;101025.09;4435963;32;34137;-77
2022/01/14 04:27:27;;;;;;;;;;;;;;;4.42;61.53;101022.44;4428495;32;33274;-77
2022/01/14 04:29:55;;;;;;;;;;;;;;;4.53;61.29;101017.50;4441984;32;33862;-77
2022/01/14 04:32:25;;;;;;;;;;;;;;;4.62;61.01;101016.19;4447458;32;35162;-77
2022/01/14 04:34:55;;;;;;;;;;;;;;;4.60;60.43;101013.63;4410078;32;846555;-77
2022/01/14 04:37:22;;;;;;;;;;;;;;;4.76;59.96;101000.50;4429806;32;33980;-77
2022/01/14 04:39:50;;;;;;;;;;;;;;;4.58;60.96;101012.00;4421826;32;33129;-77
2022/01/14 04:42:28;;;;;;;;;;;;;;;4.67;60.58;101004.47;4427938;32;34041;-77
2022/01/14 04:44:56;;;;;;;;;;;;;;;4.70;60.59;100980.59;4433805;32;32915;-77
2022/01/14 04:47:44;;;;;;;;;;;;;;;4.55;60.63;101002.44;4436426;32;32724;-77
2022/01/14 04:50:12;;;;;;;;;;;;;;;4.53;60.91;101000.84;4441513;32;34016;-77
2022/01/14 04:52:46;;;;;;;;;;;;;;;4.82;59.76;100998.41;4442799;32;34263;-77
2022/01/14 04:55:18;;;;;;;;;;;;;;;4.76;59.58;100993.47;4437774;32;33376;-77
2022/01/14 04:58:06;;;;;;;;;;;;;;;4.70;59.36;100985.87;4426086;32;33196;-77
2022/01/14 05:00:42;;;;;;;;;;;;;;;4.36;60.86;100983.22;4434592;32;33456;-77
2022/01/14 05:03:27;;;;;;;;;;;;;;;4.46;60.53;100976.59;4432858;32;34997;-77
2022/01/14 05:06:02;;;;;;;;;;;;;;;4.34;61.05;100979.81;4421414;32;33715;-77
2022/01/14 05:08:52;;;;;;;;;;;;;;;4.51;60.73;100976.34;4442895;32;32640;-77
2022/01/14 05:11:24;;;;;;;;;;;;;;;4.23;61.40;100990.03;4434577;32;34199;-77
2022/01/14 05:13:53;;;;;;;;;;;;;;;4.48;60.65;100982.63;4435746;32;34042;-77
2022/01/14 05:16:21;;;;;;;;;;;;;;;4.40;60.56;100981.28;4437702;32;35039;-77
2022/01/14 05:18:53;;;;;;;;;;;;;;;4.34;61.04;100985.09;4424474;32;32617;-77
2022/01/14 05:21:24;;;;;;;;;;;;;;;4.28;60.80;100979.28;4449505;32;33528;-77
2022/01/14 05:23:57;;;;;;;;;;;;;;;4.21;60.94;100978.75;4436767;32;34952;-77
2022/01/14 05:26:25;;;;;;;;;;;;;;;4.13;61.27;100970.38;4438330;32;33931;-77
2022/01/14 05:28:55;;;;;;;;;;;;;;;4.06;61.79;100973.38;4442692;32;34074;-78
2022/01/14 05:31:43;;;;;;;;;;;;;;;3.85;63.16;100974.41;4454013;32;34075;-77
2022/01/14 05:34:32;;;;;;;;;;;;;;;3.73;63.45;100972.37;4435188;32;34018;-77
2022/01/14 05:37:00;;;;;;;;;;;;;;;3.77;63.73;100971.31;4432362;32;33347;-77
2022/01/14 05:39:30;;;;;;;;;;;;;;;3.57;64.15;100966.97;4442099;32;31742;-78
2022/01/14 05:41:59;;;;;;;;;;;;;;;3.77;63.71;100966.03;4427470;32;32592;-82
2022/01/14 05:44:37;;;;;;;;;;;;;;;3.44;65.00;100975.53;4438495;32;35509;-78
2022/01/14 05:47:06;;;;;;;;;;;;;;;3.78;63.48;100967.75;4438938;32;36283;-78
2022/01/14 05:49:48;;;;;;;;;;;;;;;3.84;63.24;100967.44;4433794;32;32426;-78
2022/01/14 05:52:34;;;;;;;;;;;;;;;3.66;63.96;100968.31;4423533;32;33948;-78
2022/01/14 05:55:08;;;;;;;;;;;;;;;3.84;63.29;100967.44;4439256;32;35105;-78
2022/01/14 05:57:43;;;;;;;;;;;;;;;3.76;63.55;100967.81;4434489;32;34768;-78
2022/01/14 06:00:21;;;;;;;;;;;;;;;3.72;63.68;100971.53;4436533;32;33455;-78
2022/01/14 06:02:54;;;;;;;;;;;;;;;3.90;63.15;100970.66;4435707;32;33717;-78
2022/01/14 06:05:22;;;;;;;;;;;;;;;4.18;62.31;100967.50;4441894;32;35482;-78
2022/01/14 06:07:53;;;;;;;;;;;;;;;3.89;63.07;100968.91;4450778;32;34332;-79
2022/01/14 06:10:25;;;;;;;;;;;;;;;4.21;61.88;100965.56;4437344;32;32757;-78
2022/01/14 06:12:59;;;;;;;;;;;;;;;3.81;63.26;100963.19;4434431;32;32826;-78
2022/01/14 06:15:46;;;;;;;;;;;;;;;3.93;62.77;100959.09;4431735;32;33925;-78
2022/01/14 06:18:14;;;;;;;;;;;;;;;4.23;61.66;100955.81;4436668;32;35362;-78
2022/01/14 06:20:42;;;;;;;;;;;;;;;4.04;62.34;100951.50;4426603;32;31743;-78
2022/01/14 06:23:20;;;;;;;;;;;;;;;4.28;61.65;100950.31;4447833;32;34842;-78
2022/01/14 06:25:58;;;;;;;;;;;;;;;4.38;61.39;100943.62;4437141;32;32861;-78
2022/01/14 06:28:28;;;;;;;;;;;;;;;4.23;61.70;100934.72;4438308;32;35028;-78
2022/01/14 06:31:16;;;;;;;;;;;;;;;3.89;63.07;100928.59;4445806;32;31951;-77
2022/01/14 06:33:45;;;;;;;;;;;;;;;3.74;63.48;100935.47;4436493;32;34358;-78
2022/01/14 06:36:18;;;;;;;;;;;;;;;4.27;61.83;100938.06;4450959;32;36390;-78
2022/01/14 06:38:57;;;;;;;;;;;;;;;3.98;62.38;100938.69;4440002;32;34182;-78
2022/01/14 06:41:30;;;;;;;;;;;;;;;3.89;62.46;100941.75;4460251;32;32900;-78
2022/01/14 06:44:02;;;;;;;;;;;;;;;4.27;61.29;100944.16;4439503;32;34057;-78
2022/01/14 06:46:45;;;;;;;;;;;;;;;4.33;61.31;100941.25;4425253;32;34448;-78
2022/01/14 06:49:14;;;;;;;;;;;;;;;4.32;61.10;100933.41;4453796;32;34206;-78
2022/01/14 06:51:44;;;;;;;;;;;;;;;4.59;60.06;100939.91;4436898;32;31961;-78
2022/01/14 06:54:21;;;;;;;;;;;;;;;4.54;60.07;100939.31;4414490;32;32480;-78
2022/01/14 06:56:54;;;;;;;;;;;;;;;4.55;60.18;100941.84;4420360;32;35446;-78
2022/01/14 06:59:24;;;;;;;;;;;;;;;4.59;60.05;100943.41;4437631;32;34690;-78
2022/01/14 07:01:59;;;;;;;;;;;;;;;4.60;59.90;100939.84;4442630;32;32988;-78
2022/01/14 07:04:49;;;;;;;;;;;;;;;4.54;60.62;100939.31;4435688;32;33917;-78
2022/01/14 07:07:37;;;;;;;;;;;;;;;4.19;62.46;100935.84;4430074;32;35197;-77
2022/01/14 07:10:17;;;;;;;;;;;;;;;4.35;62.27;100933.28;4439495;32;34165;-78
2022/01/14 07:12:45;;;;;;;;;;;;;;;4.33;62.48;100928.06;4439405;32;32958;-78
2022/01/14 07:15:14;;;;;;;;;;;;;;;4.26;62.70;100939.84;4422024;32;33866;-78
2022/01/14 07:17:44;;;;;;;;;;;;;;;4.13;63.31;100932.63;4419217;32;34646;-78
2022/01/14 07:20:13;;;;;;;;;;;;;;;4.24;63.07;100925.06;4433774;32;33801;-78
2022/01/14 07:22:42;;;;;;;;;;;;;;;4.68;61.81;100928.87;4420648;32;33183;-77
2022/01/14 07:25:18;;;;;;;;;;;;;;;4.64;61.85;100917.66;4450021;32;33575;-78
2022/01/14 07:27:48;;;;;;;;;;;;;;;4.77;61.22;100923.12;4442558;32;35779;-77
2022/01/14 07:30:36;;;;;;;;;;;;;;;4.10;64.14;100923.12;4433708;32;36516;-78
2022/01/14 07:33:09;;;;;;;;;;;;;;;4.22;63.64;100922.50;4439596;32;33106;-77
2022/01/14 07:35:39;;;;;;;;;;;;;;;4.23;63.84;100918.06;4455056;32;34151;-78
2022/01/14 07:38:27;;;;;;;;;;;;;;;4.04;64.42;100918.16;4454752;32;35677;-78
2022/01/14 07:41:00;;;;;;;;;;;;;;;4.22;64.54;100919.00;4448339;32;34172;-78
2022/01/14 07:43:31;;;;;;;;;;;;;;;4.40;64.20;100921.56;4447286;32;33065;-77
2022/01/14 07:46:06;;;;;;;;;;;;;;;4.43;64.22;100915.28;4427712;32;33778;-78
2022/01/14 07:48:39;;;;;;;;;;;;;;;4.33;64.54;100907.00;4443810;32;35598;-77
2022/01/14 07:51:09;;;;;;;;;;;;;;;4.49;64.44;100914.97;4453893;32;34711;-78
2022/01/14 07:53:40;;;;;;;;;;;;;;;4.63;63.85;100912.47;4435720;32;32200;-78
2022/01/14 07:56:13;;;;;;;;;;;;;;;5.05;62.52;100913.69;4456221;32;34291;-78
2022/01/14 07:58:49;;;;;;;;;;;;;;;5.07;62.23;100916.25;4421514;32;34170;-78
2022/01/14 08:01:16;;;;;;;;;;;;;;;4.86;62.62;100917.38;4439044;32;34270;-77
2022/01/14 08:03:46;;;;;;;;;;;;;;;5.10;61.78;100918.72;4430534;32;33635;-78
2022/01/14 08:06:14;;;;;;;;;;;;;;;5.36;61.24;100915.50;4433173;32;33818;-78
2022/01/14 08:08:43;;;;;;;;;;;;;;;5.47;60.89;100912.19;4453242;32;35271;-78
2022/01/14 08:11:11;;;;;;;;;;;;;;;5.89;59.76;100916.84;4423310;32;33013;-78
2022/01/14 08:13:39;;;;;;;;;;;;;;;5.94;59.35;100920.94;4433992;32;33418;-78
2022/01/14 08:16:07;;;;;;;;;;;;;;;6.15;58.80;100910.94;4436814;32;33473;-78
2022/01/14 08:18:57;;;;;;;;;;;;;;;6.13;58.49;100910.12;4435486;32;34353;-78
2022/01/14 08:21:24;;;;;;;;;;;;;;;6.04;58.86;100906.25;4438454;32;35327;-78
2022/01/14 08:23:57;;;;;;;;;;;;;;;6.02;59.18;100902.00;4439742;32;33525;-78
2022/01/14 08:26:28;;;;;;;;;;;;;;;5.96;59.08;100905.84;4432511;32;34476;-78
2022/01/14 08:28:57;;;;;;;;;;;;;;;6.34;57.99;100883.31;4417535;32;34048;-78
2022/01/14 08:31:25;;;;;;;;;;;;;;;6.34;58.05;100888.59;4421263;32;33243;-78
2022/01/14 08:33:52;;;;;;;;;;;;;;;6.47;57.61;100894.00;4449681;32;33894;-78
2022/01/14 08:36:23;;;;;;;;;;;;;;;6.67;56.80;100886.56;4422494;32;33816;-78
2022/01/14 08:38:51;;;;;;;;;;;;;;;6.57;57.14;100881.94;4454180;32;34853;-78
2022/01/14 08:41:19;;;;;;;;;;;;;;;6.44;57.82;100880.97;4439763;32;34698;-78
2022/01/14 08:43:47;;;;;;;;;;;;;;;6.76;56.79;100880.72;4434543;32;32614;-78
2022/01/14 08:46:35;;;;;;;;;;;;;;;6.63;57.16;100886.84;4446246;32;34792;-78
2022/01/14 08:49:22;;;;;;;;;;;;;;;6.97;56.30;100867.94;4442715;32;34490;-78
2022/01/14 08:52:03;;;;;;;;;;;;;;;6.79;56.44;100859.38;4447885;32;34788;-78
2022/01/14 08:54:45;;;;;;;;;;;;;;;6.81;56.66;100859.28;4431699;32;31508;-78
2022/01/14 08:57:13;;;;;;;;;;;;;;;6.99;56.18;100855.50;4435088;32;32672;-78
2022/01/14 08:59:41;;;;;;;;;;;;;;;7.21;55.95;100842.59;4429300;32;34025;-78
2022/01/14 09:02:10;;;;;;;;;;;;;;;7.40;55.53;100854.56;4434057;32;33672;-78
2022/01/14 09:04:51;;;;;;;;;;;;;;;7.33;55.61;100850.59;4440039;32;32556;-78
2022/01/14 09:07:21;;;;;;;;;;;;;;;7.29;55.88;100846.44;4437786;32;33624;-78
2022/01/14 09:09:51;;;;;;;;;;;;;;;7.25;55.83;100855.53;4444312;32;35325;-78
2022/01/14 09:12:20;;;;;;;;;;;;;;;7.18;55.93;100845.44;4436213;32;34378;-78
2022/01/14 09:14:48;;;;;;;;;;;;;;;7.13;56.14;100851.03;4438323;32;32869;-78
2022/01/14 09:17:17;;;;;;;;;;;;;;;7.45;55.64;100844.50;4437584;32;34424;-78
2022/01/14 09:19:52;;;;;;;;;;;;;;;7.61;54.99;100842.56;4454538;32;34575;-78
2022/01/14 09:22:47;;;;;;;;;;;;;;;7.83;54.47;100848.16;4432634;32;33896;-78
2022/01/14 09:25:15;;;;;;;;;;;;;;;7.67;54.65;100842.19;4446217;32;33137;-78
2022/01/14 09:27:47;;;;;;;;;;;;;;;7.60;54.89;100838.22;4440516;32;34771;-78
2022/01/14 09:30:18;;;;;;;;;;;;;;;7.67;54.58;100817.47;4455481;32;34113;-79
2022/01/14 09:32:46;;;;;;;;;;;;;;;7.92;53.56;100814.91;4426843;32;33284;-78
2022/01/14 09:35:18;;;;;;;;;;;;;;;8.09;53.30;100809.31;4436149;32;34019;-79
2022/01/14 09:37:55;;;;;;;;;;;;;;;8.30;52.59;100813.19;4449858;32;34191;-79
2022/01/14 09:40:25;;;;;;;;;;;;;;;8.32;52.47;100806.84;4439337;32;36090;-78
2022/01/14 09:43:01;;;;;;;;;;;;;;;8.29;52.72;100811.50;4424898;32;33143;-78
2022/01/14 09:45:57;;;;;;;;;;;;;;;8.45;52.28;100805.84;4441250;32;32929;-79
2022/01/14 09:48:26;;;;;;;;;;;;;;;8.40;51.80;100801.00;4430164;32;33740;-79
2022/01/14 09:51:06;;;;;;;;;;;;;;;8.55;51.62;100806.94;4435258;32;35830;-79
2022/01/14 09:53:53;;;;;;;;;;;;;;;8.59;51.78;100813.72;4429912;32;34594;-79
2022/01/14 09:56:28;;;;;;;;;;;;;;;8.63;51.67;100803.72;4451645;32;33439;-78
2022/01/14 09:59:12;;;;;;;;;;;;;;;8.90;50.60;100809.75;4438532;32;33835;-79
2022/01/14 10:01:42;;;;;;;;;;;;;;;8.93;50.47;100804.22;4438996;32;35013;-79
2022/01/14 10:04:27;;;;;;;;;;;;;;;8.51;51.16;100802.78;4440771;32;34241;-78
2022/01/14 10:06:56;;;;;;;;;;;;;;;8.45;51.12;100791.75;4431208;32;31989;-79
2022/01/14 10:09:48;;;;;;;;;;;;;;;8.87;50.45;100786.06;4448753;32;34583;-79
2022/01/14 10:12:20;;;;;;;;;;;;;;;8.60;50.50;100783.56;4425112;32;33638;-79
2022/01/14 10:14:54;;;;;;;;;;;;;;;8.94;49.53;100795.28;4436803;32;33344;-78
2022/01/14 10:17:23;;;;;;;;;;;;;;;9.44;49.12;100784.50;4439388;32;33344;-78
2022/01/14 10:19:54;;;;;;;;;;;;;;;9.20;49.03;100767.72;4443687;32;33123;-78
2022/01/14 10:22:21;;;;;;;;;;;;;;;9.37;48.18;100765.50;4443822;32;34614;-78
2022/01/14 10:24:55;;;;;;;;;;;;;;;9.58;48.42;100773.69;4438731;32;34737;-78
2022/01/14 10:27:40;;;;;;;;;;;;;;;9.76;47.81;100765.22;4420664;32;31610;-79
2022/01/14 10:30:23;;;;;;;;;;;;;;;9.36;48.43;100766.47;4424255;32;33752;-78
2022/01/14 10:32:58;;;;;;;;;;;;;;;9.39;47.96;100768.06;4454516;32;35901;-79
2022/01/14 10:35:31;;;;;;;;;;;;;;;9.48;47.70;100764.72;4435920;32;34243;-79
2022/01/14 10:38:01;;;;;;;;;;;;;;;9.40;47.66;100761.78;4436883;32;32947;-78
2022/01/14 10:40:30;;;;;;;;;;;;;;;9.50;47.98;100762.78;4445583;32;33865;-78
2022/01/14 10:43:02;;;;;;;;;;;;;;;9.44;47.61;100756.13;4436670;32;34769;-78
2022/01/14 10:46:10;;;;;;;;;;;;;;;9.69;47.54;100748.03;4438184;32;33812;-78
2022/01/14 10:48:43;;;;;;;;;;;;;;;9.79;46.88;100750.81;4437546;32;32558;-79
2022/01/14 10:51:13;;;;;;;;;;;;;;;9.68;46.99;100754.31;4446582;32;34190;-78
2022/01/14 10:53:43;;;;;;;;;;;;;;;9.59;47.22;100740.84;4450196;32;35188;-78
2022/01/14 10:56:13;;;;;;;;;;;;;;;9.64;47.30;100734.22;4435969;32;34297;-78
2022/01/14 10:58:56;;;;;;;;;;;;;;;9.75;47.32;100736.91;4435373;32;33195;-79
2022/01/14 11:01:26;;;;;;;;;;;;;;;9.61;46.87;100733.59;4443605;32;33864;-78
2022/01/14 11:03:56;;;;;;;;;;;;;;;9.75;46.85;100730.75;4425304;32;33907;-78
2022/01/14 11:06:32;;;;;;;;;;;;;;;9.97;46.49;100729.00;4454338;32;34904;-79
2022/01/14 11:09:00;;;;;;;;;;;;;;;9.76;47.51;100732.47;4457684;32;33340;-78
2022/01/14 11:11:48;;;;;;;;;;;;;;;9.89;47.25;100730.53;4441411;32;34137;-78
2022/01/14 11:14:19;;;;;;;;;;;;;;;9.56;47.03;100720.66;4439518;32;34381;-79
2022/01/14 11:16:47;;;;;;;;;;;;;;;9.76;46.92;100717.38;4448936;32;34422;-78
2022/01/14 11:19:20;;;;;;;;;;;;;;;9.94;46.34;100707.13;4437984;32;33514;-78
2022/01/14 11:24:54;;;;;;;;;;;;;;;10.04;45.99;100718.78;4442158;32;33943;-78
2022/01/14 11:27:32;;;;;;;;;;;;;;;9.58;47.26;100717.91;4424459;32;34598;-78
2022/01/14 11:30:00;;;;;;;;;;;;;;;9.63;47.09;100705.97;4437699;32;32708;-78
2022/01/14 11:32:49;;;;;;;;;;;;;;;9.59;47.54;100714.28;4457978;32;35279;-78
2022/01/14 11:35:22;;;;;;;;;;;;;;;9.75;46.87;100689.06;4456849;32;34556;-78
2022/01/14 11:37:53;;;;;;;;;;;;;;;9.83;46.78;100696.47;4434172;32;33570;-79
2022/01/14 11:40:23;;;;;;;;;;;;;;;9.86;46.91;100689.13;4444175;32;32651;-78
2022/01/14 11:42:59;;;;;;;;;;;;;;;10.31;45.80;100695.34;4450302;32;34322;-78
2022/01/14 11:45:39;;;;;;;;;;;;;;;10.10;46.49;100692.56;4420390;32;35164;-78
2022/01/14 11:48:07;;;;;;;;;;;;;;;10.31;45.83;100685.53;4437358;32;34624;-78
2022/01/14 11:50:35;;;;;;;;;;;;;;;10.36;45.64;100672.75;4424938;32;33276;-79
2022/01/14 11:53:06;;;;;;;;;;;;;;;10.28;46.36;100664.53;4444717;32;34064;-78
2022/01/14 11:55:35;;;;;;;;;;;;;;;10.33;45.83;100666.81;4421571;32;33973;-79
2022/01/14 11:58:21;;;;;;;;;;;;;;;10.59;45.70;100662.94;4436989;32;34042;-78
2022/01/14 12:00:57;;;;;;;;;;;;;;;10.17;45.83;100648.56;4452760;32;33305;-78
2022/01/14 12:03:28;;;;;;;;;;;;;;;9.93;46.87;100641.66;4435720;32;34623;-78
2022/01/14 12:06:02;;;;;;;;;;;;;;;9.65;47.57;100637.63;4448712;32;35387;-78
2022/01/14 12:08:32;;;;;;;;;;;;;;;9.89;46.96;100626.87;4441796;32;34220;-79
2022/01/14 12:11:20;;;;;;;;;;;;;;;9.64;47.33;100612.00;4444698;32;33219;-79
2022/01/14 12:13:53;;;;;;;;;;;;;;;9.72;47.34;100614.94;4437747;32;33777;-78
2022/01/14 12:19:02;;;;;;;;;;;;;;;9.83;47.31;100609.63;4432814;32;32997;-78
2022/01/14 12:21:39;;;;;;;;;;;;;;;9.88;46.97;100595.97;4436363;32;33018;-78
2022/01/14 12:24:14;;;;;;;;;;;;;;;9.78;47.44;100585.22;4446285;32;32976;-78
2022/01/14 12:26:42;;;;;;;;;;;;;;;10.16;46.67;100588.38;4431192;32;35661;-79
2022/01/14 12:29:13;;;;;;;;;;;;;;;10.29;46.10;100581.09;4435929;32;35627;-79
2022/01/14 12:32:05;;;;;;;;;;;;;;;10.37;45.96;100584.00;4450351;32;33139;-78
2022/01/14 12:34:34;;;;;;;;;;;;;;;10.44;46.09;100579.87;4437759;32;33186;-79
2022/01/14 12:37:02;;;;;;;;;;;;;;;10.39;46.14;100578.56;4442340;32;34847;-78
2022/01/14 12:39:38;;;;;;;;;;;;;;;10.43;45.76;100588.84;4444408;32;33694;-79
2022/01/14 12:42:06;;;;;;;;;;;;;;;10.03;46.71;100574.38;4422651;32;32395;-79
2022/01/14 12:44:38;;;;;;;;;;;;;;;10.08;46.69;100596.13;4439870;32;33078;-79
2022/01/14 12:47:09;;;;;;;;;;;;;;;10.10;46.82;100598.69;4419175;32;34864;-79
2022/01/14 12:49:38;;;;;;;;;;;;;;;10.24;46.07;100599.25;4451140;32;35905;-79
2022/01/14 12:52:06;;;;;;;;;;;;;;;10.72;44.97;100610.37;4446487;32;34260;-79
2022/01/14 12:54:36;;;;;;;;;;;;;;;10.31;45.43;100602.28;4437547;32;33749;-79
2022/01/14 12:57:04;;;;;;;;;;;;;;;10.44;45.22;100605.63;4447000;32;35045;-79
2022/01/14 12:59:47;;;;;;;;;;;;;;;10.91;44.57;100598.12;4453456;32;35542;-78
2022/01/14 13:02:22;;;;;;;;;;;;;;;10.98;43.99;100603.78;4445084;32;32319;-79
2022/01/14 13:05:01;;;;;;;;;;;;;;;11.33;42.88;100592.69;4446331;32;34244;-79
2022/01/14 13:07:40;;;;;;;;;;;;;;;11.26;43.04;100592.50;4442921;32;35080;-79
2022/01/14 13:10:10;;;;;;;;;;;;;;;11.20;43.15;100599.19;4426571;32;33203;-79
2022/01/14 13:12:45;;;;;;;;;;;;;;;11.11;43.41;100597.31;4438808;32;33414;-78
2022/01/14 13:15:20;;;;;;;;;;;;;;;11.18;43.11;100593.16;4434092;32;33474;-79
2022/01/14 13:17:54;;;;;;;;;;;;;;;11.41;42.47;100592.91;4450035;32;35982;-79
2022/01/14 13:20:22;;;;;;;;;;;;;;;11.43;42.43;100582.97;4409126;32;34819;-79
2022/01/14 13:22:51;;;;;;;;;;;;;;;11.53;43.11;100593.69;4453847;32;33827;-79
2022/01/14 13:25:19;;;;;;;;;;;;;;;12.02;41.57;100584.00;4432874;32;34162;-79
2022/01/14 13:27:57;;;;;;;;;;;;;;;12.28;41.19;100574.53;4436617;32;34973;-79
2022/01/14 13:30:28;;;;;;;;;;;;;;;12.62;39.64;100578.56;4440185;32;34281;-79
2022/01/14 13:32:57;;;;;;;;;;;;;;;13.73;37.69;100567.25;4440219;32;32872;-78
2022/01/14 13:35:39;;;;;;;;;;;;;;;14.70;35.68;100571.84;4440976;32;35758;-79
2022/01/14 13:38:09;;;;;;;;;;;;;;;14.17;36.56;100570.03;4456191;32;34026;-79
2022/01/14 13:40:44;;;;;;;;;;;;;;;13.77;37.45;100577.50;4453694;32;34095;-79
2022/01/14 13:43:16;;;;;;;;;;;;;;;13.30;38.04;100573.09;4436314;32;33464;-79
2022/01/14 13:45:47;;;;;;;;;;;;;;;14.29;36.26;100582.25;4431918;32;33732;-79
2022/01/14 13:48:23;;;;;;;;;;;;;;;14.49;35.67;100579.28;4457284;32;34494;-78
2022/01/14 13:50:54;;;;;;;;;;;;;;;14.86;34.80;100582.72;4457053;32;33840;-80